Keewaydin — ZCFL7 — position and weather

sailwx.info

Track history (hours):
 
Tides and Currents Weather Stations Pressure Air Temp Water Temp Dewpoint Dewpoint Depression Visibility Wind Speed Wind Dir Waves Ship Positions

Keewaydin

Last reported at 2016-Aug-16 19:26 UTC. Time now 2016-Aug-30 09:12 UTC.
Position N 41°26' E 002°15'.
Warning: this ship's position is 13 days out of date.

Length 34 m; draft 2.7 m.

MMSI: 319536000.

Date/timePositionNaut miles runAvg speedWind from/ knotsBaromVisibWave heightAir tempDewpointWater temp
2016-Aug-16 19:26N 41°26' E 002°15'1 0.6
2016-Aug-16 18:33N 41°26' E 002°15'8 7.9
2016-Aug-16 17:33N 41°29' E 002°25'24 4.8
2016-Aug-16 12:33N 41°39' E 002°54'2 1.9
2016-Aug-16 11:30N 41°41' E 002°55'9 0.3
2016-Aug-15 08:27N 41°37' E 002°44'9 9.1
2016-Aug-15 07:30N 41°33' E 002°34'9 9.4
2016-Aug-15 06:32N 41°29' E 002°23'  
2016-Aug-08 18:33N 41°06' E 001°15'0 0.0
2016-Aug-08 17:33N 41°06' E 001°15'0 0.0
2016-Aug-08 16:33N 41°06' E 001°15'6 6.5
2016-Aug-08 15:33N 41°01' E 001°10'9 8.7
2016-Aug-08 14:33N 40°53' E 001°06'8 8.5
2016-Aug-08 13:33N 40°45' E 001°02'8 8.2
2016-Aug-08 12:32N 40°39' E 000°54'9 8.6
2016-Aug-08 11:32N 40°33' E 000°46'8 7.9
2016-Aug-08 10:33N 40°33' E 000°35'4 4.2
2016-Aug-08 09:33N 40°37' E 000°36'28 1.3
2016-Aug-07 12:33N 40°11' E 000°22'9 9.1
2016-Aug-07 11:34N 40°04' E 000°15'34 8.6
2016-Aug-07 07:33N 39°36' W 000°11'8 8.5
2016-Aug-07 06:33N 39°29' W 000°17'  
Track history (hours):
 
Tides and Currents Weather Stations Pressure Air Temp Water Temp Dewpoint Dewpoint Depression Visibility Wind Speed Wind Dir Waves Ship Positions

Keewaydin

Last reported at 2016-Aug-16 19:26 UTC. Time now 2016-Aug-30 09:12 UTC.
Position N 41°26' E 002°15'.
Warning: this ship's position is 13 days out of date.

Length 34 m; draft 2.7 m.

MMSI: 319536000.

Date/timePositionNaut miles runAvg speedWind from/ knotsBaromVisibWave heightAir tempDewpointWater temp
2016-Aug-16 19:26N 41°26' E 002°15'1 0.6
2016-Aug-16 18:33N 41°26' E 002°15'8 7.9
2016-Aug-16 17:33N 41°29' E 002°25'24 4.8
2016-Aug-16 12:33N 41°39' E 002°54'2 1.9
2016-Aug-16 11:30N 41°41' E 002°55'9 0.3
2016-Aug-15 08:27N 41°37' E 002°44'9 9.1
2016-Aug-15 07:30N 41°33' E 002°34'9 9.4
2016-Aug-15 06:32N 41°29' E 002°23'  
2016-Aug-08 18:33N 41°06' E 001°15'0 0.0
2016-Aug-08 17:33N 41°06' E 001°15'0 0.0
2016-Aug-08 16:33N 41°06' E 001°15'6 6.5
2016-Aug-08 15:33N 41°01' E 001°10'9 8.7
2016-Aug-08 14:33N 40°53' E 001°06'8 8.5
2016-Aug-08 13:33N 40°45' E 001°02'8 8.2
2016-Aug-08 12:32N 40°39' E 000°54'9 8.6
2016-Aug-08 11:32N 40°33' E 000°46'8 7.9
2016-Aug-08 10:33N 40°33' E 000°35'4 4.2
2016-Aug-08 09:33N 40°37' E 000°36'28 1.3
2016-Aug-07 12:33N 40°11' E 000°22'9 9.1
2016-Aug-07 11:34N 40°04' E 000°15'34 8.6
2016-Aug-07 07:33N 39°36' W 000°11'8 8.5
2016-Aug-07 06:33N 39°29' W 000°17'  

Dump ship's entire track history